createdAt,value
2023-05-05T00:00:41.350Z,66.20
2023-05-05T00:01:41.432Z,66.48
2023-05-05T00:02:47.637Z,66.49
2023-05-05T00:03:41.634Z,66.80
2023-05-05T00:04:41.685Z,66.77
2023-05-05T00:05:41.770Z,66.60
2023-05-05T00:06:41.846Z,66.55
2023-05-05T00:07:41.926Z,66.37
2023-05-05T00:08:42.008Z,66.39
2023-05-05T00:09:42.105Z,66.36
2023-05-05T00:10:42.175Z,66.46
2023-05-05T00:11:42.255Z,66.46
2023-05-05T00:12:42.345Z,66.46
2023-05-05T00:13:42.419Z,66.42
2023-05-05T00:14:42.527Z,66.35
2023-05-05T00:15:42.559Z,66.41
2023-05-05T00:16:42.699Z,66.40
2023-05-05T00:17:42.731Z,66.44
2023-05-05T00:18:42.789Z,66.67
2023-05-05T00:19:42.901Z,66.66
2023-05-05T00:20:42.978Z,66.86
2023-05-05T00:21:43.061Z,66.74
2023-05-05T00:22:43.134Z,66.95
2023-05-05T00:23:43.250Z,66.87
2023-05-05T00:24:43.329Z,66.99
2023-05-05T00:25:43.375Z,67.27
2023-05-05T00:26:43.494Z,67.28
2023-05-05T00:27:43.542Z,67.41
2023-05-05T00:28:43.639Z,67.76
2023-05-05T00:29:43.744Z,67.76
2023-05-05T00:30:43.816Z,67.67
2023-05-05T00:31:43.960Z,67.83
2023-05-05T00:32:44.017Z,67.69
2023-05-05T00:33:50.537Z,67.78
2023-05-05T00:34:44.136Z,67.85
2023-05-05T00:35:44.233Z,67.91
2023-05-05T00:36:44.283Z,67.82
2023-05-05T00:37:44.363Z,67.87
2023-05-05T00:38:44.464Z,67.94
2023-05-05T00:39:44.500Z,68.06
2023-05-05T00:40:44.609Z,68.24
2023-05-05T00:41:44.687Z,68.37
2023-05-05T00:42:44.776Z,68.34
2023-05-05T00:43:44.844Z,68.24
2023-05-05T00:44:44.985Z,68.19
2023-05-05T00:45:44.992Z,68.32
2023-05-05T00:46:45.125Z,68.38
2023-05-05T00:47:45.192Z,68.41
2023-05-05T00:48:45.209Z,68.31
2023-05-05T00:49:45.290Z,68.26
2023-05-05T00:50:45.376Z,68.17
2023-05-05T00:51:45.482Z,68.25
2023-05-05T00:52:45.556Z,68.25
2023-05-05T00:53:45.674Z,68.33
2023-05-05T00:54:45.701Z,68.31
2023-05-05T00:55:45.779Z,68.18
2023-05-05T00:56:45.905Z,68.16
2023-05-05T00:57:45.950Z,68.14
2023-05-05T00:58:46.041Z,68.27
2023-05-05T00:59:46.155Z,68.23
2023-05-05T01:00:46.206Z,68.04
2023-05-05T01:01:46.380Z,68.14
2023-05-05T01:02:46.507Z,68.24
2023-05-05T01:03:46.584Z,68.46
2023-05-05T01:04:53.002Z,68.32
2023-05-05T01:05:46.610Z,68.66
2023-05-05T01:06:46.689Z,68.67
2023-05-05T01:07:46.784Z,68.73
2023-05-05T01:08:46.866Z,68.85
2023-05-05T01:09:46.958Z,68.57
2023-05-05T01:10:47.015Z,68.60
2023-05-05T01:11:47.102Z,68.44
2023-05-05T01:12:47.231Z,68.42
2023-05-05T01:13:47.287Z,68.34
2023-05-05T01:14:47.364Z,68.41
2023-05-05T01:15:47.446Z,68.30
2023-05-05T01:16:47.543Z,68.22
2023-05-05T01:17:47.704Z,68.15
2023-05-05T01:18:47.714Z,68.08
2023-05-05T01:19:47.768Z,68.16
2023-05-05T01:20:48.757Z,68.16
2023-05-05T01:21:47.925Z,68.27
2023-05-05T01:22:48.005Z,68.24
2023-05-05T01:23:48.087Z,68.35
2023-05-05T01:24:48.168Z,68.30
2023-05-05T01:25:48.243Z,68.33
2023-05-05T01:26:48.315Z,68.40
2023-05-05T01:27:48.395Z,68.56
2023-05-05T01:28:48.513Z,68.57
2023-05-05T01:29:48.542Z,68.73
2023-05-05T01:30:48.626Z,68.64
2023-05-05T01:31:48.742Z,68.56
2023-05-05T01:32:48.822Z,68.21
2023-05-05T01:33:48.864Z,68.29
2023-05-05T01:34:48.944Z,68.24
2023-05-05T01:35:54.985Z,68.08
2023-05-05T01:36:49.080Z,68.04
2023-05-05T01:37:49.154Z,68.07
2023-05-05T01:38:49.231Z,68.15
2023-05-05T01:39:49.316Z,68.41
2023-05-05T01:40:49.443Z,68.25
2023-05-05T01:41:49.481Z,68.33
2023-05-05T01:42:49.567Z,68.45
2023-05-05T01:43:49.645Z,68.41
2023-05-05T01:44:49.707Z,68.62
2023-05-05T01:45:49.781Z,68.62
2023-05-05T01:46:50.375Z,68.85
2023-05-05T01:47:49.970Z,68.89
2023-05-05T01:48:49.989Z,68.83
2023-05-05T01:49:50.383Z,68.88
2023-05-05T01:50:50.172Z,68.98
2023-05-05T01:51:50.266Z,69.07
2023-05-05T01:52:50.379Z,69.22
2023-05-05T01:53:50.439Z,69.43
2023-05-05T01:54:50.552Z,69.58
2023-05-05T01:55:50.636Z,69.79
2023-05-05T01:56:50.667Z,70.05
2023-05-05T01:57:50.742Z,70.25
2023-05-05T01:58:50.848Z,70.52
2023-05-05T01:59:50.886Z,70.69
2023-05-05T02:00:51.017Z,70.74
2023-05-05T02:01:51.071Z,71.06
2023-05-05T02:02:51.246Z,71.21
2023-05-05T02:03:51.186Z,71.45
2023-05-05T02:04:51.282Z,71.50
2023-05-05T02:05:51.378Z,71.56
2023-05-05T02:06:59.073Z,71.36
2023-05-05T02:07:51.519Z,71.56
2023-05-05T02:08:51.596Z,71.42
2023-05-05T02:09:51.677Z,71.57
2023-05-05T02:10:51.840Z,71.71
2023-05-05T02:11:51.845Z,71.72
2023-05-05T02:12:51.935Z,71.66
2023-05-05T02:13:52.076Z,71.44
2023-05-05T02:14:52.086Z,71.25
2023-05-05T02:15:52.196Z,71.19
2023-05-05T02:16:52.299Z,70.97
2023-05-05T02:17:52.392Z,70.91
2023-05-05T02:18:52.405Z,71.03
2023-05-05T02:19:52.526Z,71.33
2023-05-05T02:20:52.581Z,71.56
2023-05-05T02:21:52.691Z,71.69
2023-05-05T02:22:52.827Z,71.75
2023-05-05T02:23:52.835Z,71.97
2023-05-05T02:24:52.903Z,71.93
2023-05-05T02:25:53.052Z,72.02
2023-05-05T02:26:53.072Z,72.00
2023-05-05T02:27:53.109Z,72.01
2023-05-05T02:28:53.246Z,72.03
2023-05-05T02:29:53.272Z,72.08
2023-05-05T02:30:53.361Z,72.33
2023-05-05T02:31:53.541Z,72.47
2023-05-05T02:32:53.643Z,72.36
2023-05-05T02:33:53.620Z,72.27
2023-05-05T02:34:54.405Z,72.14
2023-05-05T02:35:53.755Z,72.13
2023-05-05T02:36:53.839Z,72.16
2023-05-05T02:38:00.932Z,72.07
2023-05-05T02:38:53.992Z,71.88
2023-05-05T02:39:54.084Z,71.62
2023-05-05T02:40:54.183Z,71.31
2023-05-05T02:41:54.270Z,71.20
2023-05-05T02:42:54.412Z,71.17
2023-05-05T02:43:54.439Z,71.42
2023-05-05T02:44:54.481Z,71.63
2023-05-05T02:45:54.575Z,71.98
2023-05-05T02:46:54.751Z,72.18
2023-05-05T02:47:54.796Z,72.35
2023-05-05T02:48:54.785Z,72.50
2023-05-05T02:49:54.870Z,72.58
2023-05-05T02:50:54.950Z,72.50
2023-05-05T02:51:55.046Z,72.53
2023-05-05T02:52:55.141Z,72.67
2023-05-05T02:53:55.218Z,72.62
2023-05-05T02:54:55.292Z,72.72
2023-05-05T02:55:55.395Z,72.63
2023-05-05T02:56:55.483Z,72.50
2023-05-05T02:57:55.554Z,72.38
2023-05-05T02:58:55.662Z,72.36
2023-05-05T02:59:55.737Z,72.25
2023-05-05T03:00:55.832Z,72.39
2023-05-05T03:01:55.941Z,72.32
2023-05-05T03:02:56.038Z,72.11
2023-05-05T03:03:56.140Z,71.97
2023-05-05T03:04:56.094Z,71.57
2023-05-05T03:05:56.190Z,71.38
2023-05-05T03:06:56.252Z,71.39
2023-05-05T03:07:56.326Z,71.18
2023-05-05T03:09:02.974Z,71.19
2023-05-05T03:09:56.488Z,71.22
2023-05-05T03:10:56.587Z,71.19
2023-05-05T03:11:56.672Z,71.29
2023-05-05T03:12:56.809Z,71.39
2023-05-05T03:13:56.794Z,71.33
2023-05-05T03:14:56.886Z,71.34
2023-05-05T03:15:57.045Z,71.29
2023-05-05T03:16:57.039Z,71.08
2023-05-05T03:17:57.225Z,70.84
2023-05-05T03:18:57.205Z,70.75
2023-05-05T03:19:57.271Z,70.82
2023-05-05T03:20:57.356Z,70.91
2023-05-05T03:21:57.434Z,71.24
2023-05-05T03:22:57.523Z,71.30
2023-05-05T03:23:57.613Z,71.50
2023-05-05T03:24:57.694Z,71.48
2023-05-05T03:25:57.770Z,71.76
2023-05-05T03:26:57.858Z,71.79
2023-05-05T03:27:57.945Z,71.93
2023-05-05T03:28:58.034Z,71.51
2023-05-05T03:29:58.131Z,71.22
2023-05-05T03:30:58.220Z,71.05
2023-05-05T03:31:58.322Z,70.89
2023-05-05T03:32:58.426Z,70.90
2023-05-05T03:33:58.522Z,70.83
2023-05-05T03:34:58.574Z,70.91
2023-05-05T03:35:58.650Z,70.98
2023-05-05T03:36:58.729Z,70.95
2023-05-05T03:37:58.806Z,71.06
2023-05-05T03:38:58.890Z,71.24
2023-05-05T03:40:05.075Z,71.27
2023-05-05T03:40:59.041Z,71.31
2023-05-05T03:41:59.148Z,71.31
2023-05-05T03:42:59.205Z,71.22
2023-05-05T03:43:59.264Z,71.19
2023-05-05T03:44:59.355Z,71.18
2023-05-05T03:45:59.494Z,71.07
2023-05-05T03:46:59.554Z,71.10
2023-05-05T03:47:59.609Z,71.12
2023-05-05T03:48:59.679Z,71.34
2023-05-05T03:49:59.755Z,71.43
2023-05-05T03:50:59.861Z,71.46
2023-05-05T03:51:59.958Z,71.51
2023-05-05T03:53:00.019Z,71.56
2023-05-05T03:54:00.135Z,71.70
2023-05-05T03:55:00.200Z,71.63
2023-05-05T03:56:00.284Z,71.81
2023-05-05T03:57:00.324Z,71.88
2023-05-05T03:58:00.415Z,71.91
2023-05-05T03:59:00.506Z,71.96
2023-05-05T04:00:00.609Z,71.81
2023-05-05T04:01:00.674Z,71.97
2023-05-05T04:02:00.814Z,72.05
2023-05-05T04:03:00.965Z,72.22
2023-05-05T04:04:00.941Z,72.25
2023-05-05T04:05:00.996Z,72.31
2023-05-05T04:06:01.074Z,72.20
2023-05-05T04:07:01.148Z,72.13
2023-05-05T04:08:01.230Z,72.24
2023-05-05T04:09:01.331Z,72.30
2023-05-05T04:10:01.404Z,72.22
2023-05-05T04:11:07.478Z,72.21
2023-05-05T04:12:01.582Z,72.24
2023-05-05T04:13:01.695Z,72.05
2023-05-05T04:14:01.739Z,71.99
2023-05-05T04:15:01.831Z,71.92
2023-05-05T04:16:01.922Z,71.73
2023-05-05T04:17:02.021Z,71.86
2023-05-05T04:18:02.089Z,71.74
2023-05-05T04:19:02.134Z,71.83
2023-05-05T04:20:02.238Z,71.91
2023-05-05T04:21:02.339Z,72.10
2023-05-05T04:22:02.411Z,72.17
2023-05-05T04:23:02.482Z,72.08
2023-05-05T04:24:02.598Z,71.90
2023-05-05T04:25:02.681Z,71.97
2023-05-05T04:26:02.750Z,72.01
2023-05-05T04:27:02.828Z,71.82
2023-05-05T04:28:02.902Z,71.55
2023-05-05T04:29:02.975Z,71.42
2023-05-05T04:30:03.078Z,71.32
2023-05-05T04:31:03.174Z,71.23
2023-05-05T04:32:03.252Z,71.03
2023-05-05T04:33:03.395Z,71.01
2023-05-05T04:34:03.463Z,70.50
2023-05-05T04:35:03.529Z,70.11
2023-05-05T04:36:03.594Z,70.49
2023-05-05T04:37:03.661Z,70.68
2023-05-05T04:38:03.745Z,69.93
2023-05-05T04:39:03.891Z,69.72
2023-05-05T04:40:03.901Z,69.26
2023-05-05T04:41:03.985Z,68.47
2023-05-05T04:42:10.047Z,67.74
2023-05-05T04:43:04.143Z,67.06
2023-05-05T04:44:04.232Z,66.42
2023-05-05T04:45:04.291Z,65.68
2023-05-05T04:46:04.408Z,65.24
2023-05-05T04:47:04.443Z,64.67
2023-05-05T04:48:04.538Z,64.28
2023-05-05T04:49:04.614Z,63.32
2023-05-05T04:50:04.735Z,63.43
2023-05-05T04:51:04.768Z,63.03
2023-05-05T04:52:04.837Z,62.91
2023-05-05T04:53:04.944Z,62.29
2023-05-05T04:54:05.006Z,61.83
2023-05-05T04:55:05.120Z,61.13
2023-05-05T04:56:05.169Z,60.63
2023-05-05T04:57:05.219Z,60.44
2023-05-05T04:58:05.318Z,60.57
2023-05-05T04:59:05.413Z,60.88
2023-05-05T05:00:05.675Z,61.01
2023-05-05T05:01:05.562Z,60.85
2023-05-05T05:02:05.720Z,60.17
2023-05-05T05:03:05.841Z,59.53
2023-05-05T05:04:05.871Z,59.26
2023-05-05T05:05:05.866Z,59.37
2023-05-05T05:06:05.935Z,59.17
2023-05-05T05:07:06.009Z,59.31
2023-05-05T05:08:06.071Z,58.75
2023-05-05T05:09:06.148Z,58.28
2023-05-05T05:10:06.344Z,57.51
2023-05-05T05:11:06.313Z,57.83
2023-05-05T05:12:06.422Z,57.58
2023-05-05T05:13:14.501Z,57.12
2023-05-05T05:14:06.584Z,56.16
2023-05-05T05:15:06.696Z,55.94
2023-05-05T05:16:06.824Z,56.31
2023-05-05T05:17:06.867Z,56.54
2023-05-05T05:18:06.961Z,56.13
2023-05-05T05:19:07.005Z,56.78
2023-05-05T05:20:07.337Z,57.32
2023-05-05T05:21:07.187Z,57.67
2023-05-05T05:22:07.270Z,58.32
2023-05-05T05:23:07.367Z,58.37
2023-05-05T05:24:07.457Z,58.28
2023-05-05T05:25:07.541Z,58.19
2023-05-05T05:26:07.615Z,57.27
2023-05-05T05:27:09.800Z,56.54
2023-05-05T05:28:10.582Z,56.35
2023-05-05T05:29:07.865Z,55.68
2023-05-05T05:30:08.108Z,54.69
2023-05-05T05:31:08.013Z,54.46
2023-05-05T05:32:08.179Z,54.44
2023-05-05T05:33:08.216Z,54.32
2023-05-05T05:34:09.006Z,54.30
2023-05-05T05:35:08.300Z,54.30
2023-05-05T05:36:08.399Z,53.93
2023-05-05T05:37:08.501Z,53.38
2023-05-05T05:38:08.550Z,52.89
2023-05-05T05:39:08.620Z,52.69
2023-05-05T05:40:08.897Z,52.36
2023-05-05T05:41:08.745Z,52.46
2023-05-05T05:42:08.848Z,52.32
2023-05-05T05:43:08.984Z,52.27
2023-05-05T05:44:15.567Z,52.36
2023-05-05T05:45:09.125Z,52.13
2023-05-05T05:46:09.516Z,52.12
2023-05-05T05:47:09.243Z,51.87
2023-05-05T05:48:09.410Z,51.73
2023-05-05T05:49:09.436Z,50.95
2023-05-05T05:50:09.741Z,51.09
2023-05-05T05:51:09.576Z,50.46
2023-05-05T05:52:09.660Z,50.16
2023-05-05T05:53:09.716Z,50.18
2023-05-05T05:54:09.802Z,50.71
2023-05-05T05:55:09.867Z,50.65
2023-05-05T05:56:09.970Z,50.58
2023-05-05T05:57:10.023Z,50.47
2023-05-05T05:58:10.129Z,50.32
2023-05-05T05:59:10.188Z,50.13
2023-05-05T06:00:10.528Z,49.61
2023-05-05T06:01:10.350Z,49.51
2023-05-05T06:02:10.435Z,49.63
2023-05-05T06:03:10.562Z,49.80
2023-05-05T06:04:10.593Z,49.30
2023-05-05T06:05:10.620Z,49.67
2023-05-05T06:06:10.711Z,49.86
2023-05-05T06:07:10.800Z,50.24
2023-05-05T06:08:10.894Z,49.66
2023-05-05T06:09:10.954Z,49.61
2023-05-05T06:10:25.872Z,49.49
2023-05-05T06:11:11.120Z,48.92
2023-05-05T06:12:11.186Z,48.46
2023-05-05T06:13:11.337Z,47.40
2023-05-05T06:14:11.384Z,47.24
2023-05-05T06:15:17.503Z,47.18
2023-05-05T06:16:11.631Z,46.64
2023-05-05T06:17:11.637Z,46.94
2023-05-05T06:18:11.793Z,46.31
2023-05-05T06:19:11.823Z,45.79
2023-05-05T06:20:11.921Z,45.56
2023-05-05T06:21:11.980Z,45.62
2023-05-05T06:22:12.144Z,45.47
2023-05-05T06:23:12.167Z,45.76
2023-05-05T06:24:12.233Z,45.57
2023-05-05T06:25:12.312Z,45.13
2023-05-05T06:26:12.405Z,45.21
2023-05-05T06:27:12.502Z,44.43
2023-05-05T06:28:12.572Z,44.55
2023-05-05T06:29:12.660Z,45.07
2023-05-05T06:30:12.760Z,45.26
2023-05-05T06:31:12.881Z,44.77
2023-05-05T06:32:12.885Z,44.88
2023-05-05T06:33:12.977Z,44.57
2023-05-05T06:34:13.051Z,44.30
2023-05-05T06:35:13.098Z,44.54
2023-05-05T06:36:13.197Z,44.03
2023-05-05T06:37:13.290Z,43.94
2023-05-05T06:38:13.336Z,43.23
2023-05-05T06:39:15.843Z,43.29
2023-05-05T06:40:13.521Z,42.52
2023-05-05T06:41:13.579Z,41.86
2023-05-05T06:42:13.693Z,42.57
2023-05-05T06:43:13.746Z,42.57
2023-05-05T06:44:13.836Z,43.11
2023-05-05T06:45:13.926Z,43.28
2023-05-05T06:46:20.192Z,43.01
2023-05-05T06:47:14.121Z,42.46
2023-05-05T06:48:14.187Z,42.67
2023-05-05T06:49:14.257Z,42.74
2023-05-05T06:50:14.328Z,43.33
2023-05-05T06:51:14.403Z,43.24
2023-05-05T06:52:14.519Z,43.14
2023-05-05T06:53:14.574Z,43.59
2023-05-05T06:54:14.668Z,43.40
2023-05-05T06:55:14.717Z,42.66
2023-05-05T06:56:14.814Z,42.28
2023-05-05T06:57:14.912Z,42.11
2023-05-05T06:58:15.006Z,41.44
2023-05-05T06:59:15.118Z,41.18
2023-05-05T07:00:15.179Z,40.50
2023-05-05T07:01:15.297Z,39.51
2023-05-05T07:02:15.299Z,39.48
2023-05-05T07:03:15.472Z,39.24
2023-05-05T07:04:15.559Z,39.87
2023-05-05T07:05:15.586Z,39.60
2023-05-05T07:06:15.675Z,39.85
2023-05-05T07:07:15.761Z,39.66
2023-05-05T07:08:15.852Z,39.51
2023-05-05T07:09:17.069Z,39.93
2023-05-05T07:10:16.054Z,39.81
2023-05-05T07:11:16.110Z,39.61
2023-05-05T07:12:16.202Z,39.07
2023-05-05T07:13:16.452Z,39.51
2023-05-05T07:14:16.389Z,38.80
2023-05-05T07:15:26.599Z,39.20
2023-05-05T07:16:16.581Z,39.68
2023-05-05T07:17:22.677Z,39.63
2023-05-05T07:18:16.709Z,39.73
2023-05-05T07:19:16.752Z,39.20
2023-05-05T07:20:16.854Z,39.48
2023-05-05T07:21:16.940Z,38.63
2023-05-05T07:22:17.023Z,37.97
2023-05-05T07:23:17.099Z,38.06
2023-05-05T07:24:17.195Z,37.50
2023-05-05T07:25:17.302Z,37.67
2023-05-05T07:26:17.331Z,38.07
2023-05-05T07:27:17.421Z,38.07
2023-05-05T07:28:17.514Z,37.06
2023-05-05T07:29:17.598Z,36.65
2023-05-05T07:30:19.078Z,36.37
2023-05-05T07:31:17.770Z,36.04
2023-05-05T07:32:17.899Z,35.74
2023-05-05T07:33:17.897Z,35.10
2023-05-05T07:34:17.986Z,36.22
2023-05-05T07:35:18.094Z,34.89
2023-05-05T07:36:18.165Z,34.24
2023-05-05T07:37:18.261Z,34.50
2023-05-05T07:38:18.357Z,34.60
2023-05-05T07:39:18.461Z,35.13
2023-05-05T07:40:18.523Z,35.48
2023-05-05T07:41:18.634Z,35.51
2023-05-05T07:42:18.682Z,35.10
2023-05-05T07:43:18.766Z,34.85
2023-05-05T07:44:18.862Z,34.31
2023-05-05T07:45:18.912Z,33.54
2023-05-05T07:46:19.273Z,33.27
2023-05-05T07:47:19.091Z,32.53
2023-05-05T07:48:25.524Z,31.46
2023-05-05T07:49:19.275Z,32.14
2023-05-05T07:50:19.368Z,32.44
2023-05-05T07:51:19.470Z,32.41
2023-05-05T07:52:25.241Z,32.27
2023-05-05T07:53:19.628Z,33.24
2023-05-05T07:54:19.721Z,34.47
2023-05-05T07:55:19.821Z,35.17
2023-05-05T07:56:21.682Z,35.10
2023-05-05T07:57:19.984Z,34.61
2023-05-05T07:58:20.045Z,34.06
2023-05-05T07:59:20.097Z,33.06
2023-05-05T08:00:20.163Z,33.38
2023-05-05T08:01:20.262Z,32.99
2023-05-05T08:02:20.352Z,33.18
2023-05-05T08:03:20.569Z,32.73
2023-05-05T08:04:20.520Z,32.26
2023-05-05T08:05:20.568Z,31.74
2023-05-05T08:06:20.683Z,30.97
2023-05-05T08:07:20.770Z,30.41
2023-05-05T08:08:20.824Z,30.63
2023-05-05T08:09:20.905Z,30.59
2023-05-05T08:10:20.998Z,29.82
2023-05-05T08:11:21.094Z,30.71
2023-05-05T08:12:21.212Z,29.79
2023-05-05T08:13:21.278Z,30.46
2023-05-05T08:14:21.382Z,30.58
2023-05-05T08:15:21.432Z,29.88
2023-05-05T08:16:21.592Z,29.60
2023-05-05T08:17:21.647Z,30.36
2023-05-05T08:18:21.716Z,30.43
2023-05-05T08:19:29.512Z,29.45
2023-05-05T08:20:21.862Z,29.62
2023-05-05T08:21:21.955Z,29.23
2023-05-05T08:22:22.041Z,29.02
2023-05-05T08:23:22.145Z,29.30
2023-05-05T08:24:22.322Z,29.13
2023-05-05T08:25:22.310Z,27.88
2023-05-05T08:26:22.401Z,28.08
2023-05-05T08:27:22.467Z,28.08
2023-05-05T08:28:22.523Z,27.69
2023-05-05T08:29:22.616Z,27.89
2023-05-05T08:30:22.705Z,28.33
2023-05-05T08:31:22.894Z,28.70
2023-05-05T08:32:22.896Z,29.17
2023-05-05T08:33:22.988Z,28.54
2023-05-05T08:34:23.049Z,28.08
2023-05-05T08:35:23.171Z,28.25
2023-05-05T08:36:23.234Z,28.93
2023-05-05T08:37:23.302Z,28.66
2023-05-05T08:38:23.415Z,27.98
2023-05-05T08:39:23.493Z,27.78
2023-05-05T08:40:23.583Z,28.18
2023-05-05T08:41:23.639Z,28.10
2023-05-05T08:42:36.284Z,27.69
2023-05-05T08:43:23.832Z,27.96
2023-05-05T08:44:23.893Z,26.94
2023-05-05T08:45:23.961Z,26.93
2023-05-05T08:46:24.096Z,27.12
2023-05-05T08:47:24.166Z,26.67
2023-05-05T08:48:24.257Z,26.11
2023-05-05T08:49:24.323Z,26.24
2023-05-05T08:50:30.363Z,26.64
2023-05-05T08:51:24.439Z,27.18
2023-05-05T08:52:24.584Z,27.32
2023-05-05T08:53:24.615Z,27.06
2023-05-05T08:54:24.711Z,27.08
2023-05-05T08:55:24.866Z,26.99
2023-05-05T08:56:24.889Z,27.14
2023-05-05T08:57:25.003Z,28.21
2023-05-05T08:58:26.921Z,27.47
2023-05-05T08:59:25.147Z,28.12
2023-05-05T09:00:25.228Z,29.00
2023-05-05T09:01:25.350Z,29.51
2023-05-05T09:02:25.463Z,30.97
2023-05-05T09:03:25.512Z,31.69
2023-05-05T09:04:25.565Z,31.11
2023-05-05T09:05:25.629Z,29.32
2023-05-05T09:06:25.747Z,28.96
2023-05-05T09:07:25.825Z,28.23
2023-05-05T09:08:25.948Z,27.40
2023-05-05T09:09:26.020Z,26.47
2023-05-05T09:10:26.075Z,26.88
2023-05-05T09:11:26.182Z,27.26
2023-05-05T09:12:26.258Z,27.12
2023-05-05T09:13:26.363Z,26.56
2023-05-05T09:14:26.454Z,26.79
2023-05-05T09:15:26.554Z,25.88
2023-05-05T09:16:26.690Z,25.21
2023-05-05T09:17:26.808Z,24.54
2023-05-05T09:18:26.816Z,25.31
2023-05-05T09:19:26.874Z,26.26
2023-05-05T09:20:26.958Z,25.38
2023-05-05T09:21:33.557Z,26.56
2023-05-05T09:22:27.132Z,26.46
2023-05-05T09:23:27.177Z,27.19
2023-05-05T09:24:27.275Z,26.75
2023-05-05T09:25:27.383Z,28.45
2023-05-05T09:26:27.447Z,28.67
2023-05-05T09:27:27.536Z,27.49
2023-05-05T09:28:27.600Z,26.02
2023-05-05T09:29:27.695Z,25.61
2023-05-05T09:30:27.805Z,24.44
2023-05-05T09:31:27.934Z,24.67
2023-05-05T09:32:30.429Z,24.71
2023-05-05T09:33:28.004Z,24.90
2023-05-05T09:34:28.096Z,24.70
2023-05-05T09:35:28.248Z,24.94
2023-05-05T09:36:28.284Z,24.39
2023-05-05T09:37:28.373Z,24.22
2023-05-05T09:38:28.467Z,23.22
2023-05-05T09:39:28.590Z,24.40
2023-05-05T09:40:28.657Z,24.41
2023-05-05T09:41:28.755Z,24.56
2023-05-05T09:42:28.856Z,23.97
2023-05-05T09:43:28.944Z,23.88
2023-05-05T09:44:29.012Z,24.05
2023-05-05T09:45:29.067Z,23.90
2023-05-05T09:46:29.225Z,24.14
2023-05-05T09:47:30.040Z,24.26
2023-05-05T09:48:29.466Z,25.13
2023-05-05T09:49:29.435Z,25.02
2023-05-05T09:50:29.524Z,25.23
2023-05-05T09:51:29.630Z,23.75
2023-05-05T09:52:36.229Z,23.34
2023-05-05T09:53:29.755Z,23.69
2023-05-05T09:54:29.879Z,22.86
2023-05-05T09:55:29.923Z,23.87
2023-05-05T09:56:30.029Z,24.42
2023-05-05T09:57:30.081Z,23.89
2023-05-05T09:58:30.231Z,24.37
2023-05-05T09:59:30.266Z,24.11
2023-05-05T10:00:30.377Z,24.03
2023-05-05T10:01:30.459Z,23.52
2023-05-05T10:02:30.561Z,23.89
2023-05-05T10:03:32.312Z,23.79
2023-05-05T10:04:30.735Z,24.46
2023-05-05T10:05:30.756Z,24.11
2023-05-05T10:06:30.859Z,23.20
2023-05-05T10:07:30.983Z,23.11
2023-05-05T10:08:31.044Z,22.94
2023-05-05T10:09:31.136Z,22.98
2023-05-05T10:10:31.936Z,21.87
2023-05-05T10:11:31.287Z,22.56
2023-05-05T10:12:31.428Z,22.69
2023-05-05T10:13:31.456Z,23.22
2023-05-05T10:14:31.555Z,23.42
2023-05-05T10:15:31.686Z,23.55
2023-05-05T10:16:31.736Z,24.38
2023-05-05T10:17:31.856Z,24.76
2023-05-05T10:18:33.009Z,24.85
2023-05-05T10:19:31.973Z,24.32
2023-05-05T10:20:32.070Z,24.50
2023-05-05T10:21:32.198Z,24.01
2023-05-05T10:22:32.276Z,24.36
2023-05-05T10:23:38.317Z,24.29
2023-05-05T10:24:32.412Z,24.50
2023-05-05T10:25:32.504Z,25.14
2023-05-05T10:26:32.605Z,25.64
2023-05-05T10:27:32.707Z,24.98
2023-05-05T10:28:32.775Z,26.31
2023-05-05T10:29:32.865Z,25.50
2023-05-05T10:30:32.916Z,25.26
2023-05-05T10:31:33.028Z,23.80
2023-05-05T10:32:56.394Z,23.80
2023-05-05T10:33:33.239Z,23.90
2023-05-05T10:34:33.322Z,23.38
2023-05-05T10:35:33.355Z,24.32
2023-05-05T10:36:33.444Z,24.96
2023-05-05T10:37:33.537Z,26.04
2023-05-05T10:38:33.655Z,25.17
2023-05-05T10:39:33.700Z,25.61
2023-05-05T10:40:33.796Z,24.53
2023-05-05T10:41:33.898Z,24.42
2023-05-05T10:42:33.958Z,24.35
2023-05-05T10:43:34.064Z,23.56
2023-05-05T10:44:34.155Z,23.14
2023-05-05T10:45:34.286Z,25.19
2023-05-05T10:46:34.370Z,24.63
2023-05-05T10:47:34.432Z,24.43
2023-05-05T10:48:34.491Z,22.89
2023-05-05T10:49:34.563Z,23.80
2023-05-05T10:50:34.646Z,24.70
2023-05-05T10:51:40.312Z,24.03
2023-05-05T10:52:34.847Z,23.95
2023-05-05T10:53:34.918Z,24.63
2023-05-05T10:54:40.968Z,27.09
2023-05-05T10:55:35.057Z,28.97
2023-05-05T10:56:35.256Z,28.49
2023-05-05T10:57:35.248Z,27.95
2023-05-05T10:58:47.063Z,28.48
2023-05-05T10:59:35.402Z,29.07
2023-05-05T11:00:35.475Z,29.00
2023-05-05T11:01:35.732Z,30.00
2023-05-05T11:02:35.641Z,29.96
2023-05-05T11:03:35.767Z,29.47
2023-05-05T11:04:35.807Z,27.62
2023-05-05T11:05:35.908Z,26.25
2023-05-05T11:06:36.002Z,26.26
2023-05-05T11:07:36.063Z,26.17
2023-05-05T11:08:36.167Z,26.84
2023-05-05T11:09:36.239Z,26.85
2023-05-05T11:10:36.304Z,26.30
2023-05-05T11:11:36.380Z,25.94
2023-05-05T11:12:38.136Z,25.70
2023-05-05T11:13:36.553Z,26.42
2023-05-05T11:14:36.653Z,26.03
2023-05-05T11:15:36.745Z,25.97
2023-05-05T11:16:36.872Z,25.69
2023-05-05T11:17:36.947Z,25.10
2023-05-05T11:18:36.993Z,24.87
2023-05-05T11:19:37.067Z,23.91
2023-05-05T11:20:37.229Z,24.75
2023-05-05T11:21:37.233Z,24.52
2023-05-05T11:22:37.302Z,24.84
2023-05-05T11:23:37.394Z,25.58
2023-05-05T11:24:37.488Z,25.42
2023-05-05T11:25:43.974Z,24.13
2023-05-05T11:26:37.667Z,24.97
2023-05-05T11:27:37.755Z,24.49
2023-05-05T11:28:37.864Z,23.89
2023-05-05T11:29:37.927Z,24.30
2023-05-05T11:30:37.977Z,23.16
2023-05-05T11:31:38.148Z,23.31
2023-05-05T11:32:38.215Z,23.55
2023-05-05T11:33:38.266Z,21.70
2023-05-05T11:34:38.317Z,22.77
2023-05-05T11:35:38.408Z,23.94
2023-05-05T11:36:38.535Z,23.96
2023-05-05T11:37:38.609Z,23.68
2023-05-05T11:38:38.695Z,22.19
2023-05-05T11:39:38.783Z,21.16
2023-05-05T11:40:38.873Z,20.87
2023-05-05T11:41:38.961Z,21.71
2023-05-05T11:42:39.019Z,21.92
2023-05-05T11:43:39.124Z,21.84
2023-05-05T11:44:39.226Z,22.22
2023-05-05T11:45:39.318Z,21.93
2023-05-05T11:46:39.421Z,22.26
2023-05-05T11:47:39.485Z,23.06
2023-05-05T11:48:39.525Z,23.41
2023-05-05T11:49:39.643Z,24.08
2023-05-05T11:50:39.712Z,24.66
2023-05-05T11:51:39.837Z,24.92
2023-05-05T11:52:39.896Z,24.46
2023-05-05T11:53:40.579Z,25.00
2023-05-05T11:54:40.067Z,25.67
2023-05-05T11:55:40.153Z,25.71
2023-05-05T11:56:46.235Z,25.71
2023-05-05T11:57:40.348Z,25.75
2023-05-05T11:58:40.380Z,25.04
2023-05-05T11:59:40.469Z,25.43
2023-05-05T12:00:40.584Z,25.96
2023-05-05T12:01:40.622Z,25.46
2023-05-05T12:02:40.815Z,24.92
2023-05-05T12:03:41.051Z,25.29
2023-05-05T12:04:40.961Z,26.46
2023-05-05T12:05:40.959Z,25.27
2023-05-05T12:06:41.083Z,25.11
2023-05-05T12:07:41.152Z,25.16
2023-05-05T12:08:41.192Z,24.43
2023-05-05T12:09:41.308Z,25.10
2023-05-05T12:10:41.369Z,25.70
2023-05-05T12:11:41.468Z,26.17
2023-05-05T12:12:41.654Z,25.58
2023-05-05T12:13:41.720Z,25.42
2023-05-05T12:14:41.720Z,24.45
2023-05-05T12:15:41.803Z,23.23
2023-05-05T12:16:41.986Z,23.54
2023-05-05T12:17:43.106Z,23.04
2023-05-05T12:24:49.748Z,22.79
2023-05-05T12:25:52.528Z,22.78
2023-05-05T12:26:50.904Z,22.66
2023-05-05T12:27:50.995Z,22.63
2023-05-05T12:28:51.101Z,23.03
2023-05-05T12:29:51.149Z,22.29
2023-05-05T12:31:51.377Z,22.08
2023-05-05T12:32:51.414Z,20.80
2023-05-05T12:33:51.485Z,21.88
2023-05-05T12:34:51.546Z,21.14
2023-05-05T12:35:51.646Z,21.10
2023-05-05T12:36:51.743Z,20.63
2023-05-05T12:37:51.828Z,21.53
2023-05-05T12:38:51.936Z,21.95
2023-05-05T12:39:52.009Z,22.23
2023-05-05T12:40:52.091Z,22.30
2023-05-05T12:41:52.148Z,23.09
2023-05-05T12:42:52.237Z,22.76
2023-05-05T12:43:52.338Z,23.55
2023-05-05T12:44:52.443Z,23.80
2023-05-05T12:45:52.546Z,24.02
2023-05-05T12:46:52.575Z,24.41
2023-05-05T12:47:52.659Z,23.93
2023-05-05T12:48:52.833Z,23.67
2023-05-05T12:49:52.828Z,24.55
2023-05-05T12:50:52.926Z,24.52
2023-05-05T12:51:53.013Z,26.05
2023-05-05T12:52:53.099Z,26.57
2023-05-05T12:53:53.201Z,27.38
2023-05-05T12:54:54.860Z,27.35
2023-05-05T12:55:59.793Z,26.49
2023-05-05T12:56:53.399Z,26.55
2023-05-05T12:57:53.470Z,24.77
2023-05-05T12:58:53.580Z,24.55
2023-05-05T12:59:53.631Z,24.44
2023-05-05T13:00:55.068Z,24.74